Gulfport Biloxi International Airport


Codes: KGPT/GPT
Name: Gulfport Biloxi International Airport
City: Gulfport
Country: United States
Elevation: 28 ft.
Wikipedia:

Photos at Gulfport Biloxi International Airport


   Photos courtesy of SpottingLog. You can add your own sightings and photos by signing up for a free trial today.



No photos found.

Weather at Gulfport Biloxi International Airport


Time (UTC)DescriptionTempratureWindCloud coverageVisibilityPressureHumidity
21-Jun-2024 12:00Light Rain25°C9 mph, E0%10000m1019hPa86%
21-Jun-2024 15:00Light Rain28°C11 mph, E0%10000m1020hPa73%
21-Jun-2024 18:00Light Rain31°C11 mph, SE11%10000m1019hPa56%
21-Jun-2024 21:00Few Clouds31°C11 mph, S11%10000m1017hPa53%
22-Jun-2024 00:00Clear Sky28°C4 mph, S6%10000m1018hPa61%
22-Jun-2024 03:00Clear Sky26°C7 mph, S1%10000m1018hPa65%
22-Jun-2024 06:00Clear Sky24°C2 mph, NW1%10000m1018hPa72%
22-Jun-2024 09:00Clear Sky23°C4 mph, N0%10000m1017hPa72%
22-Jun-2024 12:00Clear Sky24°C4 mph, NE0%10000m1018hPa69%
22-Jun-2024 15:00Clear Sky30°C4 mph, NE0%10000m1018hPa48%
22-Jun-2024 18:00Clear Sky32°C7 mph, S0%10000m1017hPa47%
22-Jun-2024 21:00Clear Sky31°C9 mph, S5%10000m1015hPa53%
23-Jun-2024 00:00Scattered Clouds29°C7 mph, S40%10000m1014hPa63%
23-Jun-2024 03:00Scattered Clouds27°C7 mph, SW25%10000m1015hPa76%
23-Jun-2024 06:00Broken Clouds26°C7 mph, SW58%10000m1015hPa81%
23-Jun-2024 09:00Few Clouds25°C4 mph, W18%10000m1015hPa85%
23-Jun-2024 12:00Few Clouds25°C2 mph, NW18%10000m1015hPa83%
23-Jun-2024 15:00Scattered Clouds30°C2 mph, S37%10000m1016hPa60%
23-Jun-2024 18:00Scattered Clouds32°C9 mph, S25%10000m1015hPa51%
23-Jun-2024 21:00Clear Sky32°C11 mph, S4%10000m1013hPa51%
24-Jun-2024 00:00Few Clouds29°C9 mph, SW20%10000m1013hPa69%
24-Jun-2024 03:00Scattered Clouds28°C9 mph, S33%10000m1013hPa81%
24-Jun-2024 06:00Few Clouds27°C9 mph, SW20%10000m1014hPa83%
24-Jun-2024 09:00Clear Sky26°C7 mph, W4%10000m1014hPa88%
24-Jun-2024 12:00Clear Sky26°C4 mph, W2%10000m1014hPa85%
24-Jun-2024 15:00Clear Sky30°C4 mph, W1%10000m1015hPa64%
24-Jun-2024 18:00Clear Sky32°C9 mph, S1%10000m1014hPa55%
24-Jun-2024 21:00Clear Sky33°C13 mph, S0%10000m1012hPa51%
25-Jun-2024 00:00Clear Sky30°C11 mph, S0%10000m1012hPa65%
25-Jun-2024 03:00Light Rain28°C9 mph, S26%10000m1014hPa80%
25-Jun-2024 06:00Scattered Clouds27°C11 mph, SW33%10000m1013hPa81%
25-Jun-2024 09:00Clear Sky26°C7 mph, SW0%10000m1014hPa86%
25-Jun-2024 12:00Clear Sky26°C4 mph, W2%10000m1015hPa86%
25-Jun-2024 15:00Clear Sky30°C4 mph, SW0%10000m1015hPa65%
25-Jun-2024 18:00Clear Sky32°C9 mph, S0%10000m1014hPa59%
25-Jun-2024 21:00Clear Sky32°C11 mph, S0%10000m1013hPa58%
26-Jun-2024 00:00Clear Sky29°C13 mph, S1%10000m1012hPa74%
26-Jun-2024 03:00Light Rain29°C13 mph, SW0%10000m1013hPa77%
26-Jun-2024 06:00Clear Sky27°C11 mph, SW0%10000m1014hPa82%
26-Jun-2024 09:00Clear Sky26°C7 mph, SW0%10000m1013hPa89%